createdAt,value
2017-11-01T00:02:39.927Z,9.02
2017-11-01T00:05:26.661Z,9.70
2017-11-01T00:08:10.568Z,4.75
2017-11-01T00:10:48.393Z,7.78
2017-11-01T00:13:26.112Z,5.15
2017-11-01T00:16:02.977Z,3.90
2017-11-01T00:18:40.756Z,4.20
2017-11-01T00:21:17.559Z,11.27
2017-11-01T00:23:58.541Z,4.87
2017-11-01T00:26:37.968Z,6.07
2017-11-01T00:29:26.497Z,5.18
2017-11-01T00:32:08.279Z,7.50
2017-11-01T00:34:53.914Z,6.85
2017-11-01T00:37:31.650Z,8.52
2017-11-01T00:40:14.977Z,4.57
2017-11-01T00:43:01.898Z,5.37
2017-11-01T00:45:42.953Z,4.68
2017-11-01T00:48:24.668Z,7.18
2017-11-01T00:51:13.667Z,6.30
2017-11-01T00:53:56.308Z,5.28
2017-11-01T00:56:34.000Z,7.45
2017-11-01T00:59:13.156Z,7.28
2017-11-01T01:01:56.148Z,6.50
2017-11-01T01:04:35.958Z,4.60
2017-11-01T01:07:14.631Z,5.95
2017-11-01T01:09:52.477Z,4.97
2017-11-01T01:12:35.382Z,5.62
2017-11-01T01:15:19.852Z,6.25
2017-11-01T01:20:42.135Z,3.92
2017-11-01T01:26:24.005Z,9.48
2017-11-01T01:31:47.321Z,5.55
2017-11-01T01:34:40.990Z,6.97
2017-11-01T01:37:22.014Z,6.57
2017-11-01T01:42:48.838Z,4.32
2017-11-01T01:45:25.864Z,3.10
2017-11-01T01:51:00.723Z,5.25
2017-11-01T01:53:42.966Z,4.80
2017-11-01T01:56:24.964Z,4.12
2017-11-01T01:59:07.878Z,5.32
2017-11-01T02:04:32.694Z,3.80
2017-11-01T02:07:21.322Z,3.53
2017-11-01T02:12:45.306Z,6.05
2017-11-01T02:15:27.016Z,3.87
2017-11-01T02:18:06.055Z,5.90
2017-11-01T02:23:28.707Z,4.10
2017-11-01T02:26:18.519Z,5.87
2017-11-01T02:28:54.966Z,4.93
2017-11-01T02:31:32.028Z,4.72
2017-11-01T02:34:09.662Z,7.93
2017-11-01T02:36:47.448Z,8.63
2017-11-01T02:39:26.222Z,5.97
2017-11-01T02:42:09.833Z,9.30
2017-11-01T02:44:49.072Z,5.95
2017-11-01T02:47:28.647Z,5.82
2017-11-01T02:50:13.913Z,4.93
2017-11-01T02:52:52.254Z,4.70
2017-11-01T02:55:29.232Z,5.45
2017-11-01T02:58:06.063Z,9.32
2017-11-01T03:00:43.723Z,5.40
2017-11-01T03:03:22.545Z,4.93
2017-11-01T03:06:00.318Z,8.02
2017-11-01T03:08:45.529Z,4.60
2017-11-01T03:11:27.450Z,6.43
2017-11-01T03:14:04.647Z,4.22
2017-11-01T03:16:41.640Z,5.30
2017-11-01T03:19:23.294Z,7.15
2017-11-01T03:22:00.135Z,5.65
2017-11-01T03:24:37.083Z,4.28
2017-11-01T03:27:13.995Z,4.20
2017-11-01T03:29:52.552Z,7.65
2017-11-01T03:32:29.421Z,5.70
2017-11-01T03:35:06.769Z,6.57
2017-11-01T03:37:43.632Z,5.55
2017-11-01T03:40:21.370Z,6.15
2017-11-01T03:42:57.921Z,6.60
2017-11-01T03:45:37.781Z,8.60
2017-11-01T03:48:14.333Z,4.75
2017-11-01T03:50:51.270Z,5.60
2017-11-01T03:53:27.633Z,6.10
2017-11-01T03:58:46.822Z,3.85
2017-11-01T04:01:26.856Z,4.03
2017-11-01T04:04:03.532Z,5.87
2017-11-01T04:06:43.873Z,4.68
2017-11-01T04:09:20.772Z,7.18
2017-11-01T04:11:58.121Z,3.80
2017-11-01T04:14:35.041Z,3.40
2017-11-01T04:17:16.015Z,3.70
2017-11-01T04:19:59.743Z,7.37
2017-11-01T04:22:39.767Z,8.30
2017-11-01T04:25:17.501Z,6.68
2017-11-01T04:27:53.951Z,5.28
2017-11-01T04:30:31.018Z,4.53
2017-11-01T04:33:07.804Z,5.07
2017-11-01T04:35:44.910Z,3.97
2017-11-01T04:38:23.623Z,6.85
2017-11-01T04:41:00.842Z,11.63
2017-11-01T04:43:38.403Z,3.97
2017-11-01T04:46:15.792Z,6.37
2017-11-01T04:48:53.577Z,4.40
2017-11-01T04:51:32.083Z,4.40
2017-11-01T04:54:09.113Z,6.47
2017-11-01T04:56:46.427Z,4.70
2017-11-01T04:59:23.875Z,7.12
2017-11-01T05:02:02.119Z,3.72
2017-11-01T05:04:41.098Z,3.87
2017-11-01T05:07:18.567Z,4.40
2017-11-01T05:09:59.291Z,3.10
2017-11-01T05:12:41.415Z,3.55
2017-11-01T05:15:20.998Z,5.70
2017-11-01T05:18:00.510Z,3.55
2017-11-01T05:20:39.059Z,4.10
2017-11-01T05:29:17.335Z,3.90
2017-11-01T05:31:59.483Z,4.45
2017-11-01T05:34:36.903Z,4.33
2017-11-01T05:37:13.737Z,7.57
2017-11-01T05:39:55.143Z,5.23
2017-11-01T05:42:32.448Z,9.38
2017-11-01T05:45:11.998Z,6.75
2017-11-01T05:47:48.707Z,6.80
2017-11-01T05:50:26.482Z,6.83
2017-11-01T05:52:55.499Z,3.57
2017-11-01T05:55:32.223Z,4.37
2017-11-01T05:58:08.983Z,3.90
2017-11-01T06:00:48.038Z,7.23
2017-11-01T06:03:25.708Z,6.47
2017-11-01T06:06:04.222Z,5.83
2017-11-01T06:08:40.795Z,4.57
2017-11-01T06:11:19.113Z,4.13
2017-11-01T06:13:56.076Z,9.20
2017-11-01T06:16:36.886Z,15.40
2017-11-01T06:19:15.328Z,4.73
2017-11-01T06:21:52.740Z,6.63
2017-11-01T06:24:31.434Z,7.50
2017-11-01T06:27:15.922Z,8.10
2017-11-01T06:29:53.708Z,11.93
2017-11-01T06:32:32.892Z,6.30
2017-11-01T06:35:01.659Z,5.60
2017-11-01T06:37:41.804Z,9.73
2017-11-01T06:40:18.861Z,4.90
2017-11-01T06:43:01.533Z,5.10
2017-11-01T06:45:37.709Z,4.17
2017-11-01T06:48:14.402Z,7.30
2017-11-01T06:50:50.949Z,3.60
2017-11-01T06:53:28.823Z,5.40
2017-11-01T06:56:05.367Z,7.43
2017-11-01T06:58:57.989Z,3.33
2017-11-01T07:01:35.026Z,3.23
2017-11-01T07:04:15.089Z,12.00
2017-11-01T07:06:51.894Z,6.03
2017-11-01T07:09:30.655Z,3.97
2017-11-01T07:12:07.310Z,2.73
2017-11-01T07:14:44.358Z,3.43
2017-11-01T07:17:21.532Z,7.30
2017-11-01T07:19:58.741Z,6.20
2017-11-01T07:25:38.086Z,5.70
2017-11-01T07:28:14.801Z,7.40
2017-11-01T07:30:51.751Z,3.47
2017-11-01T07:33:28.919Z,4.47
2017-11-01T07:36:05.773Z,7.50
2017-11-01T07:38:42.845Z,4.87
2017-11-01T07:41:23.980Z,2.97
2017-11-01T07:44:01.029Z,7.10
2017-11-01T07:46:37.938Z,5.23
2017-11-01T07:49:14.735Z,9.33
2017-11-01T07:51:53.227Z,11.37
2017-11-01T07:54:30.146Z,11.03
2017-11-01T07:57:07.491Z,19.60
2017-11-01T07:59:46.249Z,15.43
2017-11-01T08:02:23.187Z,17.00
2017-11-01T08:05:00.280Z,21.47
2017-11-01T08:07:36.972Z,24.67
2017-11-01T08:10:13.487Z,23.13
2017-11-01T08:12:51.096Z,23.17
2017-11-01T08:15:28.028Z,25.00
2017-11-01T08:18:04.895Z,17.13
2017-11-01T08:20:41.650Z,19.33
2017-11-01T08:23:18.690Z,21.80
2017-11-01T08:25:55.000Z,26.13
2017-11-01T08:28:31.352Z,26.30
2017-11-01T08:31:20.487Z,16.00
2017-11-01T08:33:59.316Z,17.83
2017-11-01T08:36:36.515Z,23.43
2017-11-01T08:39:10.004Z,24.03
2017-11-01T08:41:46.879Z,16.10
2017-11-01T08:44:24.779Z,16.00
2017-11-01T08:47:03.753Z,14.33
2017-11-01T08:49:40.700Z,12.03
2017-11-01T08:52:17.423Z,18.90
2017-11-01T08:54:55.068Z,15.93
2017-11-01T08:57:32.241Z,15.10
2017-11-01T16:56:28.544Z,25.90
2017-11-01T16:58:57.420Z,27.70
2017-11-01T17:01:34.299Z,26.53
2017-11-01T17:04:03.511Z,28.30
2017-11-01T17:06:32.664Z,29.20
2017-11-01T17:09:09.525Z,26.23
2017-11-01T17:11:46.472Z,23.60
2017-11-01T17:14:23.334Z,23.40
2017-11-01T17:17:00.191Z,33.43
2017-11-01T17:19:37.114Z,30.27
2017-11-01T17:22:13.576Z,30.13
2017-11-01T17:24:50.418Z,24.20
2017-11-01T17:27:27.815Z,33.53
2017-11-01T17:30:05.389Z,38.57
2017-11-01T17:32:50.415Z,44.50
2017-11-01T17:35:27.925Z,32.70
2017-11-01T17:38:09.400Z,54.93
2017-11-01T17:41:00.775Z,45.50
2017-11-01T17:43:37.633Z,48.37
2017-11-01T17:46:15.744Z,57.10
2017-11-01T17:48:54.938Z,44.47
2017-11-01T17:51:31.885Z,34.43
2017-11-01T17:54:08.905Z,27.93
2017-11-01T17:56:48.166Z,27.30
2017-11-01T17:59:24.986Z,25.30
2017-11-01T18:02:06.879Z,25.80
2017-11-01T18:04:43.454Z,27.10
2017-11-01T18:07:22.948Z,33.93
2017-11-01T18:10:04.489Z,28.67
2017-11-01T18:12:41.357Z,23.10
2017-11-01T18:15:19.695Z,23.40
2017-11-01T18:17:57.753Z,34.77
2017-11-01T18:20:26.831Z,28.43
2017-11-01T18:23:10.372Z,26.33
2017-11-01T18:25:51.693Z,29.17
2017-11-01T18:28:34.686Z,28.90
2017-11-01T18:31:19.908Z,20.23
2017-11-01T18:33:56.668Z,23.60
2017-11-01T18:36:34.471Z,21.50
2017-11-01T18:39:11.094Z,17.20
2017-11-01T18:41:47.484Z,15.83
2017-11-01T18:44:24.498Z,13.77
2017-11-01T18:47:14.046Z,16.20
2017-11-01T18:49:53.238Z,20.33
2017-11-01T18:52:30.363Z,20.57
2017-11-01T18:55:07.809Z,27.20
2017-11-01T18:57:36.796Z,38.60
2017-11-01T19:00:13.624Z,49.70
2017-11-01T19:02:42.623Z,55.77
2017-11-01T19:08:09.127Z,51.63
2017-11-01T19:10:45.950Z,45.40
2017-11-01T19:13:23.093Z,49.40
2017-11-01T19:15:59.812Z,54.10
2017-11-01T19:18:36.583Z,44.20
2017-11-01T19:21:15.527Z,34.67
2017-11-01T19:23:51.911Z,29.33
2017-11-01T19:26:29.891Z,31.90
2017-11-01T19:29:06.639Z,31.17
2017-11-01T19:31:44.027Z,28.17
2017-11-01T19:34:21.060Z,25.97
2017-11-01T19:36:57.876Z,23.80
2017-11-01T19:39:35.194Z,33.17
2017-11-01T19:42:13.627Z,32.17
2017-11-01T19:44:50.452Z,37.50
2017-11-01T19:47:27.116Z,39.40
2017-11-01T19:50:03.964Z,34.47
2017-11-01T19:52:41.374Z,31.80
2017-11-01T19:55:18.217Z,34.70
2017-11-01T19:57:56.583Z,27.65
2017-11-01T20:00:34.252Z,21.87
2017-11-01T20:03:14.659Z,20.83
2017-11-01T20:05:55.278Z,17.77
2017-11-01T20:08:32.574Z,20.62
2017-11-01T20:11:10.565Z,19.85
2017-11-01T20:13:49.607Z,25.90
2017-11-01T20:16:30.868Z,30.40
2017-11-01T20:19:08.098Z,22.73
2017-11-01T20:21:44.997Z,30.23
2017-11-01T20:24:24.573Z,24.30
2017-11-01T20:26:53.833Z,26.25
2017-11-01T20:29:33.662Z,23.38
2017-11-01T20:32:12.271Z,22.02
2017-11-01T20:35:01.851Z,19.87
2017-11-01T20:37:40.052Z,21.25
2017-11-01T20:40:18.086Z,24.17
2017-11-01T20:42:55.266Z,29.20
2017-11-01T20:45:33.255Z,25.58
2017-11-01T20:48:10.438Z,21.48
2017-11-01T20:50:47.894Z,17.87
2017-11-01T20:53:24.632Z,21.20
2017-11-01T20:59:04.124Z,23.42
2017-11-01T21:01:41.443Z,15.25
2017-11-01T21:04:21.493Z,23.53
2017-11-01T21:07:05.093Z,21.17
2017-11-01T21:09:41.907Z,16.73
2017-11-01T21:12:18.953Z,14.87
2017-11-01T21:15:00.380Z,24.02
2017-11-01T21:17:37.259Z,17.90
2017-11-01T21:20:15.250Z,21.37
2017-11-01T21:22:57.128Z,17.00
2017-11-01T21:25:36.302Z,17.33
2017-11-01T21:28:05.587Z,19.08
2017-11-01T21:30:44.423Z,20.37
2017-11-01T21:33:21.518Z,17.52
2017-11-01T21:36:00.011Z,15.90
2017-11-01T21:38:48.475Z,15.10
2017-11-01T21:41:25.641Z,23.90
2017-11-01T21:44:03.815Z,17.10
2017-11-01T21:46:50.633Z,15.93
2017-11-01T21:49:29.081Z,14.70
2017-11-01T21:52:06.373Z,17.50
2017-11-01T21:54:43.593Z,14.80
2017-11-01T21:57:26.283Z,15.27
2017-11-01T22:00:05.167Z,34.43
2017-11-01T22:02:47.755Z,21.73
2017-11-01T22:05:30.681Z,15.40
2017-11-01T22:08:07.619Z,15.13
2017-11-01T22:10:51.101Z,19.73
2017-11-01T22:13:28.138Z,13.20
2017-11-01T22:16:06.182Z,13.10
2017-11-01T22:18:45.508Z,13.57
2017-11-01T22:21:22.491Z,11.33
2017-11-01T22:24:07.833Z,7.67
2017-11-01T22:26:49.015Z,10.40
2017-11-01T22:29:26.687Z,17.97
2017-11-01T22:32:03.945Z,8.93
2017-11-01T22:34:41.159Z,13.40
2017-11-01T22:37:23.159Z,8.30
2017-11-01T22:40:01.985Z,8.37
2017-11-01T22:42:46.932Z,14.00
2017-11-01T22:45:37.999Z,12.87
2017-11-01T22:48:17.435Z,5.80
2017-11-01T22:50:57.170Z,9.70
2017-11-01T22:53:42.181Z,6.30
2017-11-01T22:56:11.953Z,8.73
2017-11-01T22:58:50.424Z,9.80
2017-11-01T23:01:28.440Z,8.27
2017-11-01T23:04:06.814Z,9.50
2017-11-01T23:06:50.209Z,10.20
2017-11-01T23:09:39.267Z,8.60
2017-11-01T23:12:18.593Z,8.30
2017-11-01T23:14:57.654Z,10.40
2017-11-01T23:17:35.386Z,5.90
2017-11-01T23:23:09.117Z,8.90
2017-11-01T23:28:38.391Z,7.00
2017-11-01T23:31:20.811Z,6.47
2017-11-01T23:33:59.225Z,8.70
2017-11-01T23:36:44.526Z,6.10
2017-11-01T23:39:24.019Z,8.47
2017-11-01T23:42:02.951Z,11.00
2017-11-01T23:44:45.749Z,13.03
2017-11-01T23:47:24.845Z,8.57
2017-11-01T23:50:04.171Z,8.07
2017-11-01T23:52:46.481Z,10.00
2017-11-01T23:55:36.305Z,6.93
2017-11-01T23:58:25.108Z,7.00
